Time;durP1;ratioP1;P1;durP2;ratioP2;P2;SDS_P1;SDS_P2;PMS_P1;PMS_P2;Temp;Humidity;BMP_temperature;BMP_pressure;BME280_temperature;BME280_humidity;BME280_pressure;Samples;Min_cycle;Max_cycle;Signal;HPM_P1;HPM_P2
2022/07/18 00:02:11;;;;;;;;;;;;;;;-140.72;100.00;52192.00;5046835;28;19964;-68
2022/07/18 00:04:36;;;;;;;;;;;;;;;-140.72;100.00;52206.22;5057711;28;20354;-68
2022/07/18 00:07:01;;;;;;;;;;;;;;;-140.72;100.00;52204.19;5044195;28;19917;-68
2022/07/18 00:09:26;;;;;;;;;;;;;;;-140.72;100.00;52200.13;5058099;28;19924;-68
2022/07/18 00:11:52;;;;;;;;;;;;;;;-140.72;100.00;52171.72;5049028;28;20445;-68
2022/07/18 00:14:18;;;;;;;;;;;;;;;-140.72;100.00;52220.41;5035132;28;19963;-68
2022/07/18 00:16:43;;;;;;;;;;;;;;;-140.72;100.00;52208.25;5048722;28;20370;-68
2022/07/18 00:19:08;;;;;;;;;;;;;;;-140.72;100.00;52224.47;5051244;28;19917;-68
2022/07/18 00:21:34;;;;;;;;;;;;;;;-140.72;100.00;52224.47;5046683;28;19924;-67
2022/07/18 00:23:59;;;;;;;;;;;;;;;-140.72;100.00;52232.59;5057058;28;20454;-68
2022/07/18 00:26:24;;;;;;;;;;;;;;;-140.72;100.00;52169.69;5049009;28;19925;-67
2022/07/18 00:28:52;;;;;;;;;;;;;;;-140.72;100.00;52208.25;5051398;28;20288;-68
2022/07/18 00:31:17;;;;;;;;;;;;;;;-140.72;100.00;52202.16;5057657;28;19964;-68
2022/07/18 00:33:42;;;;;;;;;;;;;;;-140.72;100.00;52212.31;5044784;28;19917;-68
2022/07/18 00:36:07;;;;;;;;;;;;;;;-140.72;100.00;52218.38;5039961;28;19917;-68
2022/07/18 00:38:33;;;;;;;;;;;;;;;-140.72;100.00;52214.34;5049721;28;19916;-68
2022/07/18 00:40:58;;;;;;;;;;;;;;;-140.72;100.00;52212.31;5063951;28;19975;-69
2022/07/18 00:43:23;;;;;;;;;;;;;;;-140.72;100.00;52248.81;5046005;28;19917;-68
2022/07/18 00:45:49;;;;;;;;;;;;;;;-140.72;100.00;52212.31;5042197;28;19923;-67
2022/07/18 00:48:15;;;;;;;;;;;;;;;-140.72;100.00;52216.34;5042927;28;20020;-67
2022/07/18 00:50:41;;;;;;;;;;;;;;;-140.72;100.00;52198.09;5048417;28;19921;-67
2022/07/18 00:53:07;;;;;;;;;;;;;;;-140.72;100.00;52212.31;5041864;28;19943;-67
2022/07/18 00:55:33;;;;;;;;;;;;;;;-140.72;100.00;52234.63;5043145;28;19956;-67
2022/07/18 00:57:58;;;;;;;;;;;;;;;-140.72;100.00;52187.97;5038631;28;19924;-67
2022/07/18 01:03:08;;;;;;;;;;;;;;;-140.72;100.00;52265.06;5049633;28;19940;-67
2022/07/18 01:05:33;;;;;;;;;;;;;;;-140.72;100.00;52240.72;5048650;28;19917;-68
2022/07/18 01:07:59;;;;;;;;;;;;;;;-140.72;100.00;52236.66;5035903;28;20032;-68
2022/07/18 01:10:24;;;;;;;;;;;;;;;-140.72;100.00;52196.06;5058170;28;20055;-68
2022/07/18 01:12:49;;;;;;;;;;;;;;;-140.72;100.00;52208.25;5038509;28;19971;-68
2022/07/18 01:15:14;;;;;;;;;;;;;;;-140.72;100.00;52277.22;5030135;28;20400;-69
2022/07/18 01:17:40;;;;;;;;;;;;;;;-140.72;100.00;52226.50;5060551;28;20377;-68
2022/07/18 01:20:06;;;;;;;;;;;;;;;-140.72;100.00;52220.41;5061275;28;19917;-68
2022/07/18 01:22:32;;;;;;;;;;;;;;;-140.72;100.00;52248.81;5052774;28;20267;-69
2022/07/18 01:24:57;;;;;;;;;;;;;;;-140.72;100.00;52267.09;5042236;28;19923;-68
2022/07/18 01:27:22;;;;;;;;;;;;;;;-140.72;100.00;52196.06;5060928;28;19923;-69
2022/07/18 01:29:49;;;;;;;;;;;;;;;-140.72;100.00;52244.78;5058992;28;19921;-68
2022/07/18 01:32:15;;;;;;;;;;;;;;;-140.72;100.00;52238.69;5045392;28;19924;-68
2022/07/18 01:34:40;;;;;;;;;;;;;;;-140.72;100.00;52230.56;5059366;28;19916;-68
2022/07/18 01:37:06;;;;;;;;;;;;;;;-140.72;100.00;52228.53;5052003;28;19992;-68
2022/07/18 01:39:32;;;;;;;;;;;;;;;-140.72;100.00;52222.44;5043071;28;19921;-68
2022/07/18 01:41:58;;;;;;;;;;;;;;;-140.72;100.00;52242.75;5056786;28;19924;-68
2022/07/18 01:44:24;;;;;;;;;;;;;;;-140.72;100.00;52248.81;5050112;28;20012;-68
2022/07/18 01:46:49;;;;;;;;;;;;;;;-140.72;100.00;52232.59;5025654;28;19917;-68
2022/07/18 01:49:15;;;;;;;;;;;;;;;-140.72;100.00;52254.91;5053037;28;19917;-69
2022/07/18 01:51:44;;;;;;;;;;;;;;;-140.72;100.00;52234.63;5053291;28;19920;-68
2022/07/18 01:54:09;;;;;;;;;;;;;;;-140.72;100.00;52275.19;5046647;28;19917;-68
2022/07/18 01:56:34;;;;;;;;;;;;;;;-140.72;100.00;52228.53;5059767;28;19924;-68
2022/07/18 01:59:01;;;;;;;;;;;;;;;-140.72;100.00;52240.72;5059199;28;19939;-68
2022/07/18 02:01:26;;;;;;;;;;;;;;;-140.72;100.00;52281.28;5059411;28;20431;-68
2022/07/18 02:03:51;;;;;;;;;;;;;;;-140.72;100.00;52210.28;5041187;28;19928;-69
2022/07/18 02:06:16;;;;;;;;;;;;;;;-140.72;100.00;52256.94;5059721;28;19917;-68
2022/07/18 02:08:41;;;;;;;;;;;;;;;-140.72;100.00;52256.94;5059627;28;19923;-68
2022/07/18 02:11:07;;;;;;;;;;;;;;;-140.72;100.00;52285.34;5040411;28;20362;-68
2022/07/18 02:13:32;;;;;;;;;;;;;;;-140.72;100.00;52263.03;5058868;28;19924;-68
2022/07/18 02:15:57;;;;;;;;;;;;;;;-140.72;100.00;52248.81;5061948;28;19916;-68
2022/07/18 02:18:22;;;;;;;;;;;;;;;-140.72;100.00;52248.81;5059275;28;19923;-68
2022/07/18 02:20:47;;;;;;;;;;;;;;;-140.72;100.00;52226.50;5057832;28;20443;-68
2022/07/18 02:23:13;;;;;;;;;;;;;;;-140.72;100.00;52228.53;5041011;28;19917;-68
2022/07/18 02:25:38;;;;;;;;;;;;;;;-140.72;100.00;52273.19;5058484;28;19917;-68
2022/07/18 02:28:03;;;;;;;;;;;;;;;-140.72;100.00;52269.13;5041545;28;19917;-68
2022/07/18 02:30:29;;;;;;;;;;;;;;;-140.72;100.00;52252.88;5041682;28;19917;-68
2022/07/18 02:32:55;;;;;;;;;;;;;;;-140.72;100.00;52261.00;5067388;22;19924;-82
2022/07/18 02:35:20;;;;;;;;;;;;;;;-140.72;100.00;52256.94;5012328;28;20416;-82
2022/07/18 02:37:45;;;;;;;;;;;;;;;-140.72;100.00;52289.41;5013909;28;19925;-82
2022/07/18 02:40:45;;;;;;;;;;;;;;;-140.72;100.00;52254.91;5012779;28;19923;-82
2022/07/18 02:43:10;;;;;;;;;;;;;;;-140.72;100.00;52254.91;5014143;28;19924;-82
2022/07/18 02:45:55;;;;;;;;;;;;;;;-140.72;100.00;52273.19;5014264;28;19921;-82
2022/07/18 02:48:20;;;;;;;;;;;;;;;-140.72;100.00;52258.97;5014186;28;19924;-82
2022/07/18 02:50:46;;;;;;;;;;;;;;;-140.72;100.00;52246.78;5015295;28;19917;-81
2022/07/18 02:53:11;;;;;;;;;;;;;;;-140.72;100.00;52285.34;5013803;28;19917;-81
2022/07/18 02:55:36;;;;;;;;;;;;;;;-140.72;100.00;52277.22;5015350;28;20353;-82
2022/07/18 02:58:01;;;;;;;;;;;;;;;-140.72;100.00;52273.19;5013527;28;19918;-82
2022/07/18 03:00:26;;;;;;;;;;;;;;;-140.72;100.00;52263.03;5013925;28;19980;-82
2022/07/18 03:02:52;;;;;;;;;;;;;;;-140.72;100.00;52261.00;5013188;28;19972;-82
2022/07/18 03:05:17;;;;;;;;;;;;;;;-140.72;100.00;52258.97;5013063;28;19932;-82
2022/07/18 03:07:42;;;;;;;;;;;;;;;-140.72;100.00;52281.28;5018837;28;19918;-82
2022/07/18 03:10:08;;;;;;;;;;;;;;;-140.72;100.00;52321.88;5013368;28;19914;-82
2022/07/18 03:12:33;;;;;;;;;;;;;;;-140.72;100.00;52258.97;5013706;28;20016;-82
2022/07/18 03:14:59;;;;;;;;;;;;;;;-140.72;100.00;52275.19;5013290;28;19918;-82
2022/07/18 03:17:24;;;;;;;;;;;;;;;-140.72;100.00;52293.47;5013907;28;20199;-82
2022/07/18 03:19:49;;;;;;;;;;;;;;;-140.72;100.00;52293.47;5014687;28;20032;-82
2022/07/18 03:22:15;;;;;;;;;;;;;;;-140.72;100.00;52293.47;5014229;28;19921;-83
2022/07/18 03:24:40;;;;;;;;;;;;;;;-140.72;100.00;52248.81;5014466;28;20392;-82
2022/07/18 03:27:05;;;;;;;;;;;;;;;-140.72;100.00;52293.47;5013052;28;19957;-82
2022/07/18 03:29:30;;;;;;;;;;;;;;;-140.72;100.00;52263.03;5013590;28;19927;-82
2022/07/18 03:31:55;;;;;;;;;;;;;;;-140.72;100.00;52271.16;5011999;28;19979;-82
2022/07/18 03:34:21;;;;;;;;;;;;;;;-140.72;100.00;52261.00;5013092;28;19928;-82
2022/07/18 03:36:46;;;;;;;;;;;;;;;-140.72;100.00;52281.28;5019377;28;20011;-82
2022/07/18 03:39:12;;;;;;;;;;;;;;;-140.72;100.00;52307.66;5019583;28;20002;-82
2022/07/18 03:41:38;;;;;;;;;;;;;;;-140.72;100.00;52313.75;5013273;28;20250;-82
2022/07/18 03:44:03;;;;;;;;;;;;;;;-140.72;100.00;52279.25;5012826;28;19961;-82
2022/07/18 03:46:28;;;;;;;;;;;;;;;-140.72;100.00;52258.97;5012849;28;19924;-82
2022/07/18 03:48:53;;;;;;;;;;;;;;;-140.72;100.00;52325.94;5012760;28;19925;-81
2022/07/18 03:51:19;;;;;;;;;;;;;;;-140.72;100.00;52309.69;5013861;28;20364;-82
2022/07/18 03:53:44;;;;;;;;;;;;;;;-140.72;100.00;52289.41;5012709;28;20431;-82
2022/07/18 03:56:09;;;;;;;;;;;;;;;-140.72;100.00;52277.22;5014543;28;20400;-81
2022/07/18 03:58:35;;;;;;;;;;;;;;;-140.72;100.00;52305.63;5014107;28;19921;-82
2022/07/18 04:01:00;;;;;;;;;;;;;;;-140.72;100.00;52285.34;5013621;28;19983;-82
2022/07/18 04:03:25;;;;;;;;;;;;;;;-140.72;100.00;52277.22;5014351;28;20335;-82
2022/07/18 04:05:50;;;;;;;;;;;;;;;-140.72;100.00;52281.28;5012196;28;19991;-82
2022/07/18 04:08:15;;;;;;;;;;;;;;;-140.72;100.00;52279.25;5012929;28;20372;-82
2022/07/18 04:10:41;;;;;;;;;;;;;;;-140.72;100.00;52283.31;5012512;28;19913;-81
2022/07/18 04:13:07;;;;;;;;;;;;;;;-140.72;100.00;52332.03;5014392;28;19925;-82
2022/07/18 04:15:33;;;;;;;;;;;;;;;-140.72;100.00;52285.34;5015080;28;19914;-81
2022/07/18 04:17:58;;;;;;;;;;;;;;;-140.72;100.00;52273.19;5012634;28;20225;-82
2022/07/18 04:20:23;;;;;;;;;;;;;;;-140.72;100.00;52297.53;5012789;28;20004;-81
2022/07/18 04:22:56;;;;;;;;;;;;;;;-140.72;100.00;52285.34;5012829;28;20354;-82
2022/07/18 04:25:22;;;;;;;;;;;;;;;-140.72;100.00;52269.13;5013737;28;19924;-83
2022/07/18 04:27:48;;;;;;;;;;;;;;;-140.72;100.00;52252.88;5013130;28;19918;-83
2022/07/18 04:30:15;;;;;;;;;;;;;;;-140.72;100.00;52281.28;5013660;28;19917;-82
2022/07/18 04:32:40;;;;;;;;;;;;;;;-140.72;100.00;52289.41;5014065;28;19944;-82
2022/07/18 04:35:06;;;;;;;;;;;;;;;-140.72;100.00;52271.16;5012867;28;19937;-83
2022/07/18 04:37:32;;;;;;;;;;;;;;;-140.72;100.00;52244.78;5013199;28;19968;-82
2022/07/18 04:39:57;;;;;;;;;;;;;;;-140.72;100.00;52275.19;5012836;28;19921;-82
2022/07/18 04:42:22;;;;;;;;;;;;;;;-140.72;100.00;52273.19;5013238;28;20415;-82
2022/07/18 04:44:47;;;;;;;;;;;;;;;-140.72;100.00;52283.31;5029260;28;19918;-83
2022/07/18 04:47:13;;;;;;;;;;;;;;;-140.72;100.00;52265.06;5022535;28;20361;-82
2022/07/18 04:49:39;;;;;;;;;;;;;;;-140.72;100.00;52248.81;5019389;28;19924;-82
2022/07/18 04:52:04;;;;;;;;;;;;;;;-140.72;100.00;52267.09;5025057;28;19921;-82
2022/07/18 04:54:29;;;;;;;;;;;;;;;-140.72;100.00;52271.16;5015755;28;19933;-82
2022/07/18 04:56:54;;;;;;;;;;;;;;;-140.72;100.00;52277.22;5018032;28;19922;-83
2022/07/18 04:59:20;;;;;;;;;;;;;;;-140.72;100.00;52271.16;5017859;28;19924;-82
2022/07/18 05:01:46;;;;;;;;;;;;;;;-140.72;100.00;52263.03;5028593;28;19936;-83
2022/07/18 05:04:11;;;;;;;;;;;;;;;-140.72;100.00;52265.06;5023289;28;20024;-83
2022/07/18 05:06:37;;;;;;;;;;;;;;;-140.72;100.00;52279.25;5034610;28;19972;-83
2022/07/18 05:09:02;;;;;;;;;;;;;;;-140.72;100.00;52238.69;5029648;28;19964;-84
2022/07/18 05:11:28;;;;;;;;;;;;;;;-140.72;100.00;52252.88;5019951;28;19917;-83
2022/07/18 05:13:53;;;;;;;;;;;;;;;-140.72;100.00;52285.34;5023620;28;19921;-83
2022/07/18 05:16:18;;;;;;;;;;;;;;;-140.72;100.00;52232.59;5023049;28;19921;-83
2022/07/18 05:18:43;;;;;;;;;;;;;;;-140.72;100.00;52212.31;5025047;28;20265;-86
2022/07/18 05:21:08;;;;;;;;;;;;;;;-140.72;100.00;52192.00;5005153;28;20296;-83
2022/07/18 05:23:34;;;;;;;;;;;;;;;-140.72;100.00;52254.91;5019182;28;19917;-86
2022/07/18 05:25:59;;;;;;;;;;;;;;;-140.72;100.00;52238.69;5017172;28;19917;-85
2022/07/18 05:28:26;;;;;;;;;;;;;;;-140.72;100.00;52224.47;5021374;28;19921;-85
2022/07/18 05:30:54;;;;;;;;;;;;;;;-140.72;100.00;52214.34;5016414;28;20421;-84
2022/07/18 05:33:20;;;;;;;;;;;;;;;-140.72;100.00;52279.25;5022192;28;20252;-88
2022/07/18 05:35:45;;;;;;;;;;;;;;;-140.72;100.00;52232.59;5015333;28;19986;-87
2022/07/18 05:38:11;;;;;;;;;;;;;;;-140.72;100.00;52218.38;5026655;28;20016;-90
2022/07/18 05:40:36;;;;;;;;;;;;;;;-140.72;100.00;52204.19;5019468;28;19960;-91
2022/07/18 05:43:02;;;;;;;;;;;;;;;-140.72;100.00;52208.25;5026235;28;19925;-92
2022/07/18 05:45:28;;;;;;;;;;;;;;;-140.72;100.00;52210.28;5027083;28;19918;-89
2022/07/18 05:47:53;;;;;;;;;;;;;;;-140.72;100.00;52240.72;5022557;28;19961;-91
2022/07/18 05:50:18;;;;;;;;;;;;;;;-140.72;100.00;52232.59;5026532;28;20047;-88
2022/07/18 05:52:44;;;;;;;;;;;;;;;-140.72;100.00;52192.00;5024477;28;20308;-85
2022/07/18 05:55:09;;;;;;;;;;;;;;;-140.72;100.00;52214.34;5022730;28;19922;-81
2022/07/18 05:57:35;;;;;;;;;;;;;;;-140.72;100.00;52218.38;5016917;28;19924;-86
2022/07/18 06:00:00;;;;;;;;;;;;;;;-140.72;100.00;52167.66;5025214;28;19950;-89
2022/07/18 06:02:25;;;;;;;;;;;;;;;-140.72;100.00;52194.03;5015936;28;19929;-86
2022/07/18 06:04:51;;;;;;;;;;;;;;;-140.72;100.00;52183.91;5016121;28;19918;-84
2022/07/18 06:07:16;;;;;;;;;;;;;;;-140.72;100.00;52159.56;5014075;28;19921;-85
2022/07/18 06:09:41;;;;;;;;;;;;;;;-140.72;100.00;52159.56;5014824;28;20001;-85
2022/07/18 06:12:07;;;;;;;;;;;;;;;-140.72;100.00;52192.00;5014275;28;19917;-89
2022/07/18 06:14:32;;;;;;;;;;;;;;;-140.72;100.00;52165.63;5014487;28;19924;-86
2022/07/18 06:16:57;;;;;;;;;;;;;;;-140.72;100.00;52141.28;5013373;28;19972;-83
2022/07/18 06:19:22;;;;;;;;;;;;;;;-140.72;100.00;52167.66;5013704;28;19949;-84
2022/07/18 06:21:48;;;;;;;;;;;;;;;-140.72;100.00;52161.56;5013409;28;19971;-83
2022/07/18 06:24:13;;;;;;;;;;;;;;;-140.72;100.00;52153.47;5021482;28;20012;-84
2022/07/18 06:26:38;;;;;;;;;;;;;;;-140.72;100.00;52187.97;5017201;28;19923;-83
2022/07/18 06:29:04;;;;;;;;;;;;;;;-140.72;100.00;52153.47;5021878;28;19973;-83
2022/07/18 06:31:29;;;;;;;;;;;;;;;-140.72;100.00;52151.44;4998729;28;19922;-81
2022/07/18 06:33:54;;;;;;;;;;;;;;;-140.72;100.00;52143.31;5012541;28;20058;-81
2022/07/18 06:36:23;;;;;;;;;;;;;;;-140.72;100.00;52112.88;5011463;28;19917;-83
2022/07/18 06:38:48;;;;;;;;;;;;;;;-140.72;100.00;52127.09;5014419;28;19957;-84
2022/07/18 06:41:14;;;;;;;;;;;;;;;-140.72;100.00;52114.91;5013634;28;19967;-83
2022/07/18 06:43:39;;;;;;;;;;;;;;;-140.72;100.00;52110.84;5012958;28;19973;-82
2022/07/18 06:46:04;;;;;;;;;;;;;;;-140.72;100.00;52131.16;5012364;28;20487;-82
2022/07/18 06:48:33;;;;;;;;;;;;;;;-140.72;100.00;52139.25;5012937;28;20356;-81
2022/07/18 06:50:59;;;;;;;;;;;;;;;-140.72;100.00;52106.78;5026531;28;19917;-81
2022/07/18 06:53:24;;;;;;;;;;;;;;;-140.72;100.00;52123.03;5025537;28;19956;-81
2022/07/18 06:55:50;;;;;;;;;;;;;;;-140.72;100.00;52114.91;5013848;28;19972;-86
2022/07/18 06:58:15;;;;;;;;;;;;;;;-140.72;100.00;52086.50;5025443;28;19976;-88
2022/07/18 07:00:40;;;;;;;;;;;;;;;-140.72;100.00;52114.91;5017013;28;19925;-88
2022/07/18 07:03:05;;;;;;;;;;;;;;;-140.72;100.00;52090.56;5002353;28;19921;-90
2022/07/18 07:05:30;;;;;;;;;;;;;;;-140.72;100.00;52108.81;5027922;28;19918;-87
2022/07/18 07:07:56;;;;;;;;;;;;;;;-140.72;100.00;52092.59;5028759;28;19924;-83
2022/07/18 07:10:21;;;;;;;;;;;;;;;-140.72;100.00;52090.56;5027205;28;20296;-86
2022/07/18 07:12:48;;;;;;;;;;;;;;;-140.72;100.00;52098.69;5014452;28;19924;-86
2022/07/18 07:15:13;;;;;;;;;;;;;;;-140.72;100.00;52086.50;5024093;28;19913;-84
2022/07/18 07:17:38;;;;;;;;;;;;;;;-140.72;100.00;52102.75;5027472;28;20016;-87
2022/07/18 07:20:05;;;;;;;;;;;;;;;-140.72;100.00;52060.13;5032412;28;19917;-88
2022/07/18 07:22:30;;;;;;;;;;;;;;;-140.72;100.00;52092.59;5028179;28;19921;-89
2022/07/18 07:24:57;;;;;;;;;;;;;;;-140.72;100.00;52086.50;5036725;28;19926;-91
2022/07/18 07:27:22;;;;;;;;;;;;;;;-140.72;100.00;52066.22;5027598;28;19944;-92
2022/07/18 07:29:47;;;;;;;;;;;;;;;-140.72;100.00;52037.81;5007143;28;19917;-89
2022/07/18 07:32:13;;;;;;;;;;;;;;;-140.72;100.00;52009.41;5039888;28;19906;-93
2022/07/18 07:34:39;;;;;;;;;;;;;;;-140.72;100.00;52037.81;5029036;28;19924;-89
2022/07/18 07:37:04;;;;;;;;;;;;;;;-140.72;100.00;52025.63;5026864;28;19925;-88
2022/07/18 07:39:30;;;;;;;;;;;;;;;-140.72;100.00;52033.75;5023038;28;19909;-93
2022/07/18 07:41:55;;;;;;;;;;;;;;;-140.72;100.00;52017.53;5017855;28;19952;-92
2022/07/18 07:44:20;;;;;;;;;;;;;;;-140.72;100.00;52025.63;5018297;28;20151;-93
2022/07/18 07:46:45;;;;;;;;;;;;;;;-140.72;100.00;52013.47;5016084;28;19925;-83
2022/07/18 07:49:11;;;;;;;;;;;;;;;-140.72;100.00;52009.41;5011788;28;19914;-84
2022/07/18 07:51:36;;;;;;;;;;;;;;;-140.72;100.00;51985.06;5012898;28;20012;-86
2022/07/18 07:54:02;;;;;;;;;;;;;;;-140.72;100.00;52003.31;5017871;28;19917;-84
2022/07/18 07:56:27;;;;;;;;;;;;;;;-140.72;100.00;51976.94;5021559;28;20360;-85
2022/07/18 07:58:52;;;;;;;;;;;;;;;-140.72;100.00;51995.19;5025627;28;20368;-84
2022/07/18 08:01:19;;;;;;;;;;;;;;;-140.72;100.00;51970.84;5023999;28;19944;-85
2022/07/18 08:03:46;;;;;;;;;;;;;;;-140.72;100.00;51932.31;5012797;28;19925;-85
2022/07/18 08:06:11;;;;;;;;;;;;;;;-140.72;100.00;51976.94;5016075;28;20068;-84
2022/07/18 08:08:36;;;;;;;;;;;;;;;-140.72;100.00;51920.13;5017247;28;19952;-84
2022/07/18 08:11:02;;;;;;;;;;;;;;;-140.72;100.00;51972.88;5030239;28;19921;-85
2022/07/18 08:13:27;;;;;;;;;;;;;;;-140.72;100.00;51926.22;5028931;28;19963;-85
2022/07/18 08:15:52;;;;;;;;;;;;;;;-140.72;100.00;51893.75;5024138;28;19924;-86
2022/07/18 08:18:17;;;;;;;;;;;;;;;-140.72;100.00;51912.03;5013711;28;19922;-86
2022/07/18 08:20:42;;;;;;;;;;;;;;;-140.72;100.00;51885.66;5016200;28;19917;-82
2022/07/18 08:23:10;;;;;;;;;;;;;;;-140.72;100.00;51899.84;5015447;28;20335;-84
2022/07/18 08:25:36;;;;;;;;;;;;;;;-140.72;100.00;51873.47;5017807;28;20284;-82
2022/07/18 08:28:02;;;;;;;;;;;;;;;-140.72;100.00;51871.44;5028785;28;19921;-82
2022/07/18 08:30:27;;;;;;;;;;;;;;;-140.72;100.00;51895.78;5015364;28;19925;-82
2022/07/18 08:32:52;;;;;;;;;;;;;;;-140.72;100.00;51883.63;5015379;28;19997;-83
2022/07/18 08:35:19;;;;;;;;;;;;;;;-140.72;100.00;51816.66;5015200;28;19987;-83
2022/07/18 08:37:44;;;;;;;;;;;;;;;-140.72;100.00;51857.25;5026883;28;19921;-83
2022/07/18 08:40:10;;;;;;;;;;;;;;;-140.72;100.00;51814.63;5015140;28;20272;-83
2022/07/18 08:42:35;;;;;;;;;;;;;;;-140.72;100.00;51814.63;5016187;28;20012;-82
2022/07/18 08:45:01;;;;;;;;;;;;;;;-140.72;100.00;51822.75;5027492;28;20265;-82
2022/07/18 08:47:28;;;;;;;;;;;;;;;-140.72;100.00;51818.69;5021058;28;19972;-83
2022/07/18 08:49:54;;;;;;;;;;;;;;;-140.72;100.00;51802.47;5032857;28;20356;-83
2022/07/18 08:52:20;;;;;;;;;;;;;;;-140.72;100.00;51788.25;5023103;28;19921;-83
2022/07/18 08:54:48;;;;;;;;;;;;;;;-140.72;100.00;51790.28;5020479;28;20350;-82
2022/07/18 08:57:13;;;;;;;;;;;;;;;-140.72;100.00;51776.09;5021421;28;20043;-84
2022/07/18 08:59:39;;;;;;;;;;;;;;;-140.72;100.00;51778.13;5035513;28;20011;-82
2022/07/18 09:02:05;;;;;;;;;;;;;;;-140.72;100.00;51774.06;5021273;28;19918;-82
2022/07/18 09:04:38;;;;;;;;;;;;;;;-140.72;100.00;51800.44;5014824;28;19918;-83
2022/07/18 09:07:04;;;;;;;;;;;;;;;-140.72;100.00;51725.38;5014838;28;19991;-83
2022/07/18 09:09:29;;;;;;;;;;;;;;;-140.72;100.00;51729.44;5014704;28;19921;-83
2022/07/18 09:11:55;;;;;;;;;;;;;;;-140.72;100.00;51721.31;5026738;28;19963;-83
2022/07/18 09:14:32;;;;;;;;;;;;;;;-140.72;100.00;51749.72;5033998;28;19995;-83
2022/07/18 09:17:16;;;;;;;;;;;;;;;-140.72;100.00;51731.44;5005755;28;20440;-80
2022/07/18 09:19:42;;;;;;;;;;;;;;;-140.72;100.00;51674.66;5013176;28;19924;-84
2022/07/18 09:22:14;;;;;;;;;;;;;;;-140.72;100.00;51658.41;5072638;23;19925;-68
2022/07/18 09:24:59;;;;;;;;;;;;;;;-140.72;100.00;51672.63;5067380;28;19921;-68
2022/07/18 09:27:29;;;;;;;;;;;;;;;-140.72;100.00;51670.59;5072168;28;19916;-68
2022/07/18 09:30:14;;;;;;;;;;;;;;;-140.72;100.00;51644.22;5038113;28;19922;-69
2022/07/18 09:32:40;;;;;;;;;;;;;;;-140.72;100.00;51625.97;5060555;28;19916;-69
2022/07/18 09:35:06;;;;;;;;;;;;;;;-140.72;100.00;51589.44;5043520;28;19972;-68
2022/07/18 09:37:32;;;;;;;;;;;;;;;-140.72;100.00;51585.38;5047286;28;19923;-69
2022/07/18 09:40:24;;;;;;;;;;;;;;;-140.72;100.00;51591.47;5054378;28;19917;-69
2022/07/18 09:42:54;;;;;;;;;;;;;;;-140.72;89.88;51577.28;5032246;28;19960;-68
2022/07/18 09:45:26;;;;;;;;;;;;;;;-140.72;87.67;51567.13;5033912;28;19971;-68
2022/07/18 09:47:53;;;;;;;;;;;;;;;-140.72;83.13;51579.28;5035491;28;19917;-69
2022/07/18 09:50:23;;;;;;;;;;;;;;;-140.72;99.88;51552.94;5040765;28;19975;-68
2022/07/18 09:52:56;;;;;;;;;;;;;;;-140.72;94.42;51530.59;5050155;28;19920;-68
2022/07/18 09:55:21;;;;;;;;;;;;;;;-140.72;84.57;51504.25;5053303;28;20269;-69
2022/07/18 09:57:55;;;;;;;;;;;;;;;-140.72;77.55;51483.94;5031232;28;19924;-69
2022/07/18 10:00:21;;;;;;;;;;;;;;;-140.72;73.42;51508.28;5043075;28;19948;-69
2022/07/18 10:02:46;;;;;;;;;;;;;;;-140.72;71.61;51512.34;5034775;28;19928;-69
2022/07/18 10:05:11;;;;;;;;;;;;;;;-140.72;77.17;51471.78;5045732;28;19924;-70
2022/07/18 10:07:37;;;;;;;;;;;;;;;-140.72;73.75;51504.25;5047415;28;19927;-69
2022/07/18 10:10:02;;;;;;;;;;;;;;;-140.72;68.08;51453.53;5046709;28;19924;-71
2022/07/18 10:12:27;;;;;;;;;;;;;;;-140.72;63.75;51414.97;5040892;28;19944;-68
2022/07/18 10:14:53;;;;;;;;;;;;;;;-140.72;52.57;51394.69;5054282;28;19916;-69
2022/07/18 10:17:20;;;;;;;;;;;;;;;-140.72;46.00;51477.88;5060416;28;19916;-70
2022/07/18 10:19:45;;;;;;;;;;;;;;;-140.72;63.80;51441.34;5033521;28;20412;-69
2022/07/18 10:22:11;;;;;;;;;;;;;;;-140.72;67.25;51419.03;5051855;28;19925;-69
2022/07/18 10:24:40;;;;;;;;;;;;;;;-140.72;58.18;51396.72;5055411;28;19916;-69
2022/07/18 10:27:19;;;;;;;;;;;;;;;-140.72;51.56;51394.69;5042844;28;19940;-70
2022/07/18 10:30:03;;;;;;;;;;;;;;;-140.72;58.50;51412.94;5047037;28;19932;-70
2022/07/18 10:32:33;;;;;;;;;;;;;;;-140.72;58.66;51419.03;5028903;28;19943;-69
2022/07/18 10:34:58;;;;;;;;;;;;;;;-140.72;62.51;51461.63;5056845;28;19927;-72
2022/07/18 10:37:24;;;;;;;;;;;;;;;-140.72;67.42;51394.69;5043864;28;20374;-71
2022/07/18 10:39:50;;;;;;;;;;;;;;;-140.72;58.72;51352.09;5046279;28;19921;-69
2022/07/18 10:42:18;;;;;;;;;;;;;;;-140.72;56.79;51370.34;5036563;28;19921;-69
2022/07/18 10:44:44;;;;;;;;;;;;;;;-140.72;55.50;51327.75;5050625;28;19917;-72
2022/07/18 10:47:23;;;;;;;;;;;;;;;-140.72;49.46;51408.88;5042828;28;20414;-73
2022/07/18 10:49:56;;;;;;;;;;;;;;;-140.72;49.50;51400.78;5059706;28;19917;-69
2022/07/18 10:52:24;;;;;;;;;;;;;;;-140.72;54.38;51414.97;5041485;28;20452;-68
2022/07/18 10:55:17;;;;;;;;;;;;;;;-140.72;60.80;51396.72;5037418;28;19932;-69
2022/07/18 10:58:06;;;;;;;;;;;;;;;-140.72;57.66;51356.16;5025506;28;19943;-65
2022/07/18 11:00:36;;;;;;;;;;;;;;;-140.72;58.82;51335.88;5025308;28;19925;-66
2022/07/18 11:03:04;;;;;;;;;;;;;;;-140.72;50.53;51270.94;5033070;28;20006;-65
2022/07/18 11:05:29;;;;;;;;;;;;;;;-140.72;44.19;51307.47;5040076;28;20261;-65
2022/07/18 11:07:58;;;;;;;;;;;;;;;-140.72;53.32;51258.78;5048566;28;19917;-65
2022/07/18 11:10:41;;;;;;;;;;;;;;;-140.72;50.76;51258.78;5045594;28;20385;-65
2022/07/18 11:13:37;;;;;;;;;;;;;;;-140.72;40.83;51311.53;5022808;28;19917;-65
2022/07/18 11:16:06;;;;;;;;;;;;;;;-140.72;41.66;51348.03;5045800;28;20340;-65
2022/07/18 11:18:32;;;;;;;;;;;;;;;-140.72;43.58;51329.78;5042244;28;20435;-65
2022/07/18 11:20:58;;;;;;;;;;;;;;;-140.72;41.58;51266.88;5044091;28;19960;-65
2022/07/18 11:23:27;;;;;;;;;;;;;;;-140.72;40.25;51291.22;5042940;28;20014;-65
2022/07/18 11:25:56;;;;;;;;;;;;;;;-140.72;45.66;51248.63;5048052;28;19943;-65
2022/07/18 11:28:23;;;;;;;;;;;;;;;-140.72;45.23;51201.97;5043011;28;20072;-65
2022/07/18 11:31:00;;;;;;;;;;;;;;;-140.72;41.43;51179.66;5036956;28;19917;-65
2022/07/18 11:33:27;;;;;;;;;;;;;;;-140.72;35.87;51155.31;5022036;28;19921;-65
2022/07/18 11:36:01;;;;;;;;;;;;;;;-140.72;34.58;51189.81;5037217;28;19933;-65
2022/07/18 11:38:26;;;;;;;;;;;;;;;-140.72;36.00;51222.25;5049181;28;19984;-64
2022/07/18 11:40:51;;;;;;;;;;;;;;;-140.72;35.01;51226.31;5044876;28;19928;-65
2022/07/18 11:43:20;;;;;;;;;;;;;;;-140.72;36.45;51256.75;5052128;28;19988;-66
2022/07/18 11:45:46;;;;;;;;;;;;;;;-140.72;42.20;51283.13;5035695;28;20041;-65
2022/07/18 11:48:11;;;;;;;;;;;;;;;-140.72;40.43;51309.50;5048277;28;19968;-65
2022/07/18 11:50:37;;;;;;;;;;;;;;;-140.72;39.63;51234.44;5034482;28;19917;-65
2022/07/18 11:53:02;;;;;;;;;;;;;;;-140.72;39.97;51252.69;5047440;28;19917;-65
2022/07/18 11:55:35;;;;;;;;;;;;;;;-140.72;37.19;51183.72;5044410;28;19917;-66
2022/07/18 11:58:13;;;;;;;;;;;;;;;-140.72;35.57;51165.47;5031551;28;20330;-66
2022/07/18 12:00:39;;;;;;;;;;;;;;;-140.72;40.95;51157.34;5034405;28;19964;-66
2022/07/18 12:03:15;;;;;;;;;;;;;;;-140.72;35.13;51210.09;5033860;28;20361;-66
2022/07/18 12:05:42;;;;;;;;;;;;;;;-140.72;37.88;51175.59;5040024;28;19963;-66
2022/07/18 12:08:26;;;;;;;;;;;;;;;-140.72;38.08;51181.69;5053076;28;19916;-65
2022/07/18 12:11:06;;;;;;;;;;;;;;;-140.72;35.56;51151.25;5048518;28;19921;-64
2022/07/18 12:13:46;;;;;;;;;;;;;;;-140.72;36.39;51149.22;5039849;28;19921;-65
2022/07/18 12:16:41;;;;;;;;;;;;;;;-140.72;32.25;51155.31;5035827;28;20369;-65
2022/07/18 12:19:13;;;;;;;;;;;;;;;-140.72;32.72;51137.06;5035626;28;19999;-65
2022/07/18 12:21:39;;;;;;;;;;;;;;;-140.72;35.66;51171.56;5044575;28;20293;-65